EHGG/GRQ METAR and TAF weather

Enter ICAO airport designator
Station Type Date Time Source
EHGG METAR 2020/11/25 22:55 UTC NOAA

EHGG 252255Z AUTO 21007KT 6000 BKN009 OVC010 08/07 Q1017


Station Type Date Time Source
EHGG Decoded METAR 2020/11/25 22:55 UTC NOAA

Groningen Airport Eelde, Netherlands (EHGG) 53-08N 006-35E 4M
Nov 25, 2020 - 05:55 PM EST / 2020.11.25 2255 UTC
Wind: from the SSW (210 degrees) at 8 MPH (7 KT):0
Visibility: 3 mile(s):0
Sky conditions: overcast
Temperature: 46 F (8 C)
Dew Point: 44 F (7 C)
Relative Humidity: 93%
Pressure (altimeter): 30.03 in. Hg (1017 hPa)
ob: EHGG 252255Z AUTO 21007KT 6000 BKN009 OVC010 08/07 Q1017
cycle: 23

Station Type Date Time Source
EHGG TAF 2020/11/25 20:59 UTC NOAA

TAF
AMD EHGG 252053Z 2520/2624 19007KT 7000 BKN007 PROB30
TEMPO 2521/2524 4000 BR
BECMG 2600/2603 4000 -DZRA BR
TEMPO 2603/2610 2000 DZ BKN003
BECMG 2609/2612 9999 NSW BKN025 PROB30
TEMPO 2610/2616 2000 BR DZ BKN004 PROB30 2620/2624 0600 FG BKN001

Example: see airport list